Time;durP1;ratioP1;P1;durP2;ratioP2;P2;SDS_P1;SDS_P2;PMS_P1;PMS_P2;Temp;Humidity;BMP_temperature;BMP_pressure;BME280_temperature;BME280_humidity;BME280_pressure;Samples;Min_cycle;Max_cycle;Signal;HPM_P1;HPM_P2
2023/08/13 00:02:30;;;;;;;2.47;1.33;;;;;;;;;;5879713;28;20666;-81
2023/08/13 00:05:27;;;;;;;3.28;2.35;;;;;;;;;;5878531;28;20135;-81
2023/08/13 00:08:18;;;;;;;11.32;2.67;;;;;;;;;;5880610;28;20056;-80
2023/08/13 00:11:15;;;;;;;1.40;1.30;;;;;;;;;;5880882;28;20675;-83
2023/08/13 00:14:05;;;;;;;1.42;1.23;;;;;;;;;;5880937;28;20045;-83
2023/08/13 00:17:04;;;;;;;1.88;1.67;;;;;;;;;;5880331;28;20124;-78
2023/08/13 00:19:55;;;;;;;2.33;2.03;;;;;;;;;;5881004;28;20641;-82
2023/08/13 00:22:53;;;;;;;2.75;1.55;;;;;;;;;;5879175;28;20049;-79
2023/08/13 00:25:43;;;;;;;2.20;1.63;;;;;;;;;;5880106;28;20056;-79
2023/08/13 00:28:41;;;;;;;2.03;1.52;;;;;;;;;;5880590;28;20052;-81
2023/08/13 00:31:32;;;;;;;4.35;1.30;;;;;;;;;;5880387;28;20051;-82
2023/08/13 00:34:29;;;;;;;3.33;1.80;;;;;;;;;;5880635;28;20484;-79
2023/08/13 00:37:19;;;;;;;3.80;2.05;;;;;;;;;;5880558;28;20673;-82
2023/08/13 00:40:17;;;;;;;4.28;1.50;;;;;;;;;;5879626;28;20077;-82
2023/08/13 00:43:08;;;;;;;1.60;1.02;;;;;;;;;;5880057;28;20047;-79
2023/08/13 00:46:07;;;;;;;1.83;1.67;;;;;;;;;;5879786;28;20053;-83
2023/08/13 00:48:59;;;;;;;2.38;1.60;;;;;;;;;;5879887;28;20492;-79
2023/08/13 00:51:57;;;;;;;1.80;1.00;;;;;;;;;;5879568;28;20056;-83
2023/08/13 00:54:47;;;;;;;3.08;1.95;;;;;;;;;;5861869;28;20049;-80
2023/08/13 00:57:45;;;;;;;1.20;1.05;;;;;;;;;;5879355;28;20045;-85
2023/08/13 01:00:36;;;;;;;1.33;1.23;;;;;;;;;;5880167;28;20529;-83
2023/08/13 01:03:37;;;;;;;2.38;1.40;;;;;;;;;;5879644;28;20115;-82
2023/08/13 01:07:06;;;;;;;3.58;1.60;;;;;;;;;;5879989;28;20049;-79
2023/08/13 01:10:09;;;;;;;1.55;1.27;;;;;;;;;;5784713;28;20050;-79
2023/08/13 01:13:20;;;;;;;1.48;1.38;;;;;;;;;;5879555;28;20081;-82
2023/08/13 01:16:19;;;;;;;1.15;1.00;;;;;;;;;;5863699;28;20052;-79
2023/08/13 01:19:12;;;;;;;1.45;1.35;;;;;;;;;;5880187;28;20591;-81
2023/08/13 01:22:10;;;;;;;1.92;1.25;;;;;;;;;;5879338;28;20053;-82
2023/08/13 01:25:01;;;;;;;1.70;1.27;;;;;;;;;;5879607;28;20049;-83
2023/08/13 01:28:22;;;;;;;5.55;1.50;;;;;;;;;;5879148;28;20380;-79
2023/08/13 01:31:25;;;;;;;2.88;1.70;;;;;;;;;;5879748;28;20053;-78
2023/08/13 01:34:24;;;;;;;2.53;1.40;;;;;;;;;;5866709;28;20067;-79
2023/08/13 01:37:18;;;;;;;1.25;1.13;;;;;;;;;;5866871;28;20075;-82
2023/08/13 01:40:16;;;;;;;1.60;1.50;;;;;;;;;;5884136;28;20056;-82
2023/08/13 01:43:07;;;;;;;1.40;1.13;;;;;;;;;;5883844;28;20045;-82
2023/08/13 01:46:04;;;;;;;1.38;1.27;;;;;;;;;;5883977;28;20087;-80
2023/08/13 01:48:54;;;;;;;3.45;1.52;;;;;;;;;;5883816;28;20048;-82
2023/08/13 01:51:52;;;;;;;3.58;1.45;;;;;;;;;;5884049;28;20627;-83
2023/08/13 01:54:42;;;;;;;2.05;1.45;;;;;;;;;;5884196;28;20407;-79
2023/08/13 01:57:40;;;;;;;1.75;1.55;;;;;;;;;;5884122;28;20652;-81
2023/08/13 02:00:30;;;;;;;1.98;1.30;;;;;;;;;;5884363;28;20040;-83
2023/08/13 02:03:28;;;;;;;1.55;1.15;;;;;;;;;;5883463;28;20183;-82
2023/08/13 02:06:19;;;;;;;1.80;1.50;;;;;;;;;;5883732;28;20741;-79
2023/08/13 02:09:17;;;;;;;2.30;1.65;;;;;;;;;;5883038;28;20049;-83
2023/08/13 02:12:07;;;;;;;1.98;1.63;;;;;;;;;;5882961;28;20044;-80
2023/08/13 02:15:06;;;;;;;1.75;1.23;;;;;;;;;;5883558;28;20128;-81
2023/08/13 02:17:56;;;;;;;1.50;1.30;;;;;;;;;;5882693;28;20136;-82
2023/08/13 02:20:54;;;;;;;0.82;0.82;;;;;;;;;;5900781;28;20044;-79
2023/08/13 02:23:44;;;;;;;4.03;0.98;;;;;;;;;;5905202;28;20052;-82
2023/08/13 02:26:42;;;;;;;1.38;1.10;;;;;;;;;;5905570;28;20059;-85
2023/08/13 02:29:32;;;;;;;2.25;1.80;;;;;;;;;;5905972;28;20045;-81
2023/08/13 02:32:30;;;;;;;2.72;1.95;;;;;;;;;;5905606;28;20075;-81
2023/08/13 02:35:20;;;;;;;2.03;1.50;;;;;;;;;;5904544;28;20048;-83
2023/08/13 02:38:18;;;;;;;2.40;1.77;;;;;;;;;;5901494;28;20036;-80
2023/08/13 02:41:08;;;;;;;2.03;1.58;;;;;;;;;;5904954;28;20047;-83
2023/08/13 02:44:06;;;;;;;1.77;1.67;;;;;;;;;;5904720;28;20040;-83
2023/08/13 02:46:57;;;;;;;2.78;2.13;;;;;;;;;;5886770;28;20051;-82
2023/08/13 02:49:55;;;;;;;1.17;1.03;;;;;;;;;;5901003;28;20051;-83
2023/08/13 02:52:45;;;;;;;2.13;1.88;;;;;;;;;;5905245;28;20295;-83
2023/08/13 02:55:43;;;;;;;1.75;1.38;;;;;;;;;;5899397;28;20369;-79
2023/08/13 02:58:34;;;;;;;7.80;1.70;;;;;;;;;;5905899;28;20048;-81
2023/08/13 03:01:31;;;;;;;2.58;1.17;;;;;;;;;;5901935;28;20054;-82
2023/08/13 03:04:21;;;;;;;4.78;2.40;;;;;;;;;;5905200;28;20047;-83
2023/08/13 03:07:19;;;;;;;1.42;1.20;;;;;;;;;;5903923;28;20109;-79
2023/08/13 03:10:09;;;;;;;1.75;1.40;;;;;;;;;;5904411;28;20045;-80
2023/08/13 03:13:07;;;;;;;2.17;1.52;;;;;;;;;;5900201;28;20040;-82
2023/08/13 03:15:57;;;;;;;2.95;1.25;;;;;;;;;;5904346;28;20115;-80
2023/08/13 03:18:55;;;;;;;1.98;1.48;;;;;;;;;;5904422;28;20189;-81
2023/08/13 03:21:52;;;;;;;2.22;1.38;;;;;;;;;;5904106;28;20131;-82
2023/08/13 03:24:42;;;;;;;4.20;1.55;;;;;;;;;;5904492;28;20445;-80
2023/08/13 03:27:40;;;;;;;1.73;1.08;;;;;;;;;;5903110;28;20040;-84
2023/08/13 03:30:30;;;;;;;1.95;1.65;;;;;;;;;;5903895;28;20068;-82
2023/08/13 03:33:28;;;;;;;3.22;2.08;;;;;;;;;;5899986;28;20471;-79
2023/08/13 03:36:18;;;;;;;1.65;0.70;;;;;;;;;;5903626;28;20104;-80
2023/08/13 03:39:16;;;;;;;15.45;1.58;;;;;;;;;;5904016;28;20044;-82
2023/08/13 03:42:06;;;;;;;1.77;1.42;;;;;;;;;;5904400;28;20040;-84
2023/08/13 03:45:05;;;;;;;3.58;1.90;;;;;;;;;;5904447;28;20699;-79
2023/08/13 03:47:56;;;;;;;11.55;3.25;;;;;;;;;;5903045;28;20043;-82
2023/08/13 03:50:53;;;;;;;1.88;1.70;;;;;;;;;;5904026;28;20483;-80
2023/08/13 03:53:43;;;;;;;32.38;1.83;;;;;;;;;;5904341;28;20067;-78
2023/08/13 03:56:47;;;;;;;10.40;2.08;;;;;;;;;;5903874;28;20044;-81
2023/08/13 03:59:38;;;;;;;10.80;2.45;;;;;;;;;;5905100;28;20469;-78
2023/08/13 04:02:38;;;;;;;1.48;1.38;;;;;;;;;;5904058;28;20037;-82
2023/08/13 04:05:29;;;;;;;17.38;1.83;;;;;;;;;;5905040;28;20044;-79
2023/08/13 04:08:26;;;;;;;2.22;1.70;;;;;;;;;;5900931;28;20537;-82
2023/08/13 04:11:17;;;;;;;2.65;1.30;;;;;;;;;;5906095;28;20049;-84
2023/08/13 04:14:15;;;;;;;4.53;1.55;;;;;;;;;;5906785;28;20686;-84
2023/08/13 04:17:12;;;;;;;2.22;1.63;;;;;;;;;;5907129;28;20487;-84
2023/08/13 04:20:03;;;;;;;1.02;0.93;;;;;;;;;;5906850;28;20040;-81
2023/08/13 04:23:00;;;;;;;1.52;1.40;;;;;;;;;;5902802;28;20033;-83
2023/08/13 04:25:51;;;;;;;1.77;1.52;;;;;;;;;;5906789;28;20032;-83
2023/08/13 04:28:48;;;;;;;1.70;1.60;;;;;;;;;;5889580;28;20058;-79
2023/08/13 04:31:39;;;;;;;4.50;1.45;;;;;;;;;;5905718;28;20265;-82
2023/08/13 04:34:37;;;;;;;3.88;2.08;;;;;;;;;;5900333;28;20495;-84
2023/08/13 04:37:27;;;;;;;4.30;1.92;;;;;;;;;;5905027;28;20038;-80
2023/08/13 04:40:24;;;;;;;2.58;2.15;;;;;;;;;;5902943;28;20514;-84
2023/08/13 04:43:16;;;;;;;6.40;2.90;;;;;;;;;;5903113;28;20652;-83
2023/08/13 04:46:12;;;;;;;4.32;2.53;;;;;;;;;;5902631;28;20377;-82
2023/08/13 04:49:10;;;;;;;2.28;1.63;;;;;;;;;;5902267;28;20054;-82
2023/08/13 04:52:07;;;;;;;9.60;2.50;;;;;;;;;;5902120;28;20047;-84
2023/08/13 04:54:57;;;;;;;10.15;1.70;;;;;;;;;;5902380;28;20119;-83
2023/08/13 04:57:54;;;;;;;2.85;1.95;;;;;;;;;;5880671;28;20674;-84
2023/08/13 05:00:45;;;;;;;3.65;1.85;;;;;;;;;;5903029;28;20040;-85
2023/08/13 05:03:50;;;;;;;9.43;2.50;;;;;;;;;;5902332;28;20052;-81
2023/08/13 05:06:41;;;;;;;3.60;1.67;;;;;;;;;;5898641;28;20048;-83
2023/08/13 05:09:37;;;;;;;5.07;2.20;;;;;;;;;;5897761;28;20053;-81
2023/08/13 05:12:34;;;;;;;6.03;3.08;;;;;;;;;;5879705;28;20055;-82
2023/08/13 05:15:25;;;;;;;6.63;2.20;;;;;;;;;;5901784;28;20055;-85
2023/08/13 05:18:23;;;;;;;2.47;2.17;;;;;;;;;;5902167;28;20036;-81
2023/08/13 05:21:14;;;;;;;4.03;2.10;;;;;;;;;;5896518;28;20056;-80
2023/08/13 05:24:12;;;;;;;1.52;1.35;;;;;;;;;;5902181;28;20214;-86
2023/08/13 05:27:03;;;;;;;2.75;1.52;;;;;;;;;;5902498;28;20072;-81
2023/08/13 05:30:01;;;;;;;3.15;2.38;;;;;;;;;;5898082;28;20127;-81
2023/08/13 05:32:53;;;;;;;4.25;1.95;;;;;;;;;;5902214;28;20043;-82
2023/08/13 05:35:51;;;;;;;2.75;2.35;;;;;;;;;;5902087;28;20563;-83
2023/08/13 05:38:41;;;;;;;2.58;1.95;;;;;;;;;;5902764;28;20137;-81
2023/08/13 05:41:38;;;;;;;3.67;1.73;;;;;;;;;;5896768;28;20049;-77
2023/08/13 05:44:29;;;;;;;2.10;1.73;;;;;;;;;;5878386;28;20041;-82
2023/08/13 05:47:26;;;;;;;3.20;1.83;;;;;;;;;;5878595;28;20041;-82
2023/08/13 05:50:24;;;;;;;3.60;2.20;;;;;;;;;;5848962;28;20057;-81
2023/08/13 05:53:22;;;;;;;2.08;1.75;;;;;;;;;;5853986;28;20045;-84
2023/08/13 05:56:13;;;;;;;2.17;1.75;;;;;;;;;;5871775;28;20376;-84
2023/08/13 05:59:11;;;;;;;2.72;1.73;;;;;;;;;;5826403;28;20050;-84
2023/08/13 06:02:01;;;;;;;2.75;1.70;;;;;;;;;;5831579;28;20136;-87
2023/08/13 06:04:59;;;;;;;2.67;1.73;;;;;;;;;;5851290;28;20054;-82
2023/08/13 06:07:49;;;;;;;3.33;1.58;;;;;;;;;;5859122;28;20052;-82
2023/08/13 06:10:46;;;;;;;7.82;4.65;;;;;;;;;;5868958;28;20048;-82
2023/08/13 06:13:44;;;;;;;2.95;1.73;;;;;;;;;;5870364;28;20052;-83
2023/08/13 06:16:35;;;;;;;2.15;1.60;;;;;;;;;;5876923;28;20044;-83
2023/08/13 06:19:32;;;;;;;2.63;1.77;;;;;;;;;;5857259;28;20931;-84
2023/08/13 06:22:22;;;;;;;2.60;1.70;;;;;;;;;;5879361;28;20057;-84
2023/08/13 06:25:19;;;;;;;2.67;1.60;;;;;;;;;;5884467;28;20048;-81
2023/08/13 06:28:11;;;;;;;1.75;1.38;;;;;;;;;;5879185;28;20047;-87
2023/08/13 06:31:09;;;;;;;1.77;1.13;;;;;;;;;;5887177;28;20480;-83
2023/08/13 06:34:13;;;;;;;3.55;1.70;;;;;;;;;;5885218;28;20064;-80
2023/08/13 06:37:10;;;;;;;3.83;2.15;;;;;;;;;;5871352;28;20974;-84
2023/08/13 06:40:01;;;;;;;9.32;3.30;;;;;;;;;;5888480;28;20056;-81
2023/08/13 06:42:58;;;;;;;2.30;1.20;;;;;;;;;;5852824;28;20044;-83
2023/08/13 06:45:49;;;;;;;4.35;1.20;;;;;;;;;;5869669;28;20049;-79
2023/08/13 06:48:47;;;;;;;3.10;1.38;;;;;;;;;;5886812;28;20135;-79
2023/08/13 06:51:38;;;;;;;1.30;1.05;;;;;;;;;;5886354;28;20132;-82
2023/08/13 06:54:35;;;;;;;1.00;0.95;;;;;;;;;;5886877;28;20044;-85
2023/08/13 06:57:26;;;;;;;1.33;1.20;;;;;;;;;;5886165;28;20760;-83
2023/08/13 07:00:24;;;;;;;1.48;1.05;;;;;;;;;;5883336;28;20072;-82
2023/08/13 07:03:24;;;;;;;8.23;1.50;;;;;;;;;;5877336;28;20128;-83
2023/08/13 07:06:22;;;;;;;2.30;1.55;;;;;;;;;;5885750;28;20055;-85
2023/08/13 07:09:12;;;;;;;1.92;1.17;;;;;;;;;;5886762;28;20129;-81
2023/08/13 07:12:09;;;;;;;1.10;1.00;;;;;;;;;;5878356;28;20415;-81
2023/08/13 07:15:03;;;;;;;2.13;1.48;;;;;;;;;;5884801;28;20059;-80
2023/08/13 07:18:03;;;;;;;1.65;1.40;;;;;;;;;;5885981;28;20055;-82
2023/08/13 07:20:54;;;;;;;2.30;1.52;;;;;;;;;;5887210;28;21013;-84
2023/08/13 07:23:52;;;;;;;2.63;1.60;;;;;;;;;;5873742;28;20430;-83
2023/08/13 07:26:43;;;;;;;1.42;1.08;;;;;;;;;;5879004;28;20394;-80
2023/08/13 07:29:40;;;;;;;2.13;1.08;;;;;;;;;;5878298;28;20047;-83
2023/08/13 07:32:31;;;;;;;1.30;1.05;;;;;;;;;;5878506;28;20502;-85
2023/08/13 07:35:29;;;;;;;6.38;1.95;;;;;;;;;;5872545;28;20545;-80
2023/08/13 07:38:19;;;;;;;22.20;1.85;;;;;;;;;;5877024;28;20041;-84
2023/08/13 07:41:16;;;;;;;4.70;1.40;;;;;;;;;;5879735;28;20052;-84
2023/08/13 07:44:07;;;;;;;3.08;1.08;;;;;;;;;;5856171;28;20084;-81
2023/08/13 07:47:05;;;;;;;0.70;0.70;;;;;;;;;;5877741;28;20575;-83
2023/08/13 07:49:56;;;;;;;3.42;1.17;;;;;;;;;;5879072;28;20187;-85
2023/08/13 07:52:53;;;;;;;1.98;1.20;;;;;;;;;;5868223;28;20571;-82
2023/08/13 07:55:46;;;;;;;1.92;1.05;;;;;;;;;;5881075;28;20040;-81
2023/08/13 07:58:44;;;;;;;1.10;1.00;;;;;;;;;;5882896;28;20503;-83
2023/08/13 08:01:35;;;;;;;2.25;1.38;;;;;;;;;;5883596;28;20511;-87
2023/08/13 08:04:32;;;;;;;9.50;1.52;;;;;;;;;;5879958;28;20044;-82
2023/08/13 08:07:22;;;;;;;0.60;0.60;;;;;;;;;;5883711;28;20045;-80
2023/08/13 08:10:19;;;;;;;3.63;1.20;;;;;;;;;;5884712;28;20614;-83
2023/08/13 08:13:10;;;;;;;1.67;1.58;;;;;;;;;;5884289;28;20792;-82
2023/08/13 08:16:07;;;;;;;1.40;1.25;;;;;;;;;;5881802;28;20610;-86
2023/08/13 08:19:01;;;;;;;1.30;1.05;;;;;;;;;;5884376;28;20118;-84
2023/08/13 08:21:59;;;;;;;1.58;0.80;;;;;;;;;;5871100;28;20613;-82
2023/08/13 08:24:50;;;;;;;2.30;1.33;;;;;;;;;;5871100;28;20842;-86
2023/08/13 08:27:47;;;;;;;2.50;1.60;;;;;;;;;;5856653;28;20419;-86
2023/08/13 08:30:40;;;;;;;1.08;0.73;;;;;;;;;;5866745;28;20410;-81
2023/08/13 08:33:37;;;;;;;2.22;1.55;;;;;;;;;;5882423;28;20455;-84
2023/08/13 08:36:28;;;;;;;1.40;1.15;;;;;;;;;;5885569;28;20403;-85
2023/08/13 08:39:26;;;;;;;1.93;1.63;;;;;;;;;;5881306;28;20203;-85
2023/08/13 08:42:17;;;;;;;1.75;1.20;;;;;;;;;;5881923;28;20057;-87
2023/08/13 08:45:16;;;;;;;;;;;;;;;;;;5867416;28;20044;-83
2023/08/13 08:48:07;;;;;;;0.90;0.70;;;;;;;;;;5865842;28;19925;-84
2023/08/13 08:51:04;;;;;;;4.10;0.82;;;;;;;;;;5882620;28;20052;-85
2023/08/13 08:53:56;;;;;;;1.27;0.90;;;;;;;;;;5881812;28;20141;-87
2023/08/13 08:56:54;;;;;;;1.52;0.75;;;;;;;;;;5884289;28;20036;-86
2023/08/13 08:59:44;;;;;;;1.90;1.25;;;;;;;;;;5884381;28;20503;-82
2023/08/13 09:02:43;;;;;;;1.23;0.90;;;;;;;;;;5883154;28;20115;-87
2023/08/13 09:05:35;;;;;;;5.20;1.63;;;;;;;;;;5879246;28;20771;-84
2023/08/13 09:08:32;;;;;;;1.63;1.23;;;;;;;;;;5877954;28;20044;-83
2023/08/13 09:11:23;;;;;;;1.08;0.80;;;;;;;;;;5883602;28;20048;-83
2023/08/13 09:14:22;;;;;;;2.53;1.35;;;;;;;;;;5884021;28;20130;-87
2023/08/13 09:17:12;;;;;;;2.72;1.52;;;;;;;;;;5884029;28;20050;-81
2023/08/13 09:20:20;;;;;;;2.60;0.90;;;;;;;;;;5879882;28;20048;-83
2023/08/13 09:23:22;;;;;;;6.38;1.80;;;;;;;;;;5880594;28;20127;-84
2023/08/13 09:26:13;;;;;;;4.95;1.70;;;;;;;;;;5879242;28;20159;-89
2023/08/13 09:29:11;;;;;;;3.05;1.27;;;;;;;;;;5880195;28;20087;-89
2023/08/13 09:32:03;;;;;;;4.90;1.23;;;;;;;;;;5878032;28;20124;-87
2023/08/13 09:35:03;;;;;;;1.80;1.23;;;;;;;;;;5856396;28;20048;-86
2023/08/13 09:37:54;;;;;;;3.63;1.90;;;;;;;;;;5871964;28;20049;-88
2023/08/13 09:40:52;;;;;;;3.10;1.55;;;;;;;;;;5838988;28;20041;-87
2023/08/13 09:43:47;;;;;;;3.97;2.08;;;;;;;;;;5826912;28;20491;-86
2023/08/13 09:46:53;;;;;;;3.50;1.30;;;;;;;;;;5845083;28;20059;-83
2023/08/13 09:49:45;;;;;;;5.72;1.98;;;;;;;;;;5861124;28;20044;-84
2023/08/13 09:52:47;;;;;;;1.80;0.98;;;;;;;;;;5843834;28;20083;-88
2023/08/13 09:55:48;;;;;;;1.35;0.90;;;;;;;;;;5847828;28;20134;-86
2023/08/13 09:58:46;;;;;;;2.50;1.05;;;;;;;;;;5849152;28;20076;-87
2023/08/13 10:01:37;;;;;;;3.00;0.90;;;;;;;;;;5847900;28;20060;-88
2023/08/13 10:04:35;;;;;;;7.93;1.20;;;;;;;;;;5887066;28;20048;-84
2023/08/13 10:07:26;;;;;;;6.78;1.88;;;;;;;;;;5893218;28;20041;-82
2023/08/13 10:10:26;;;;;;;1.85;1.20;;;;;;;;;;5875904;28;20534;-86
2023/08/13 10:13:18;;;;;;;2.45;1.02;;;;;;;;;;5889068;28;20071;-82
2023/08/13 10:16:16;;;;;;;1.48;0.88;;;;;;;;;;5874264;28;20500;-84
2023/08/13 10:19:08;;;;;;;1.15;0.90;;;;;;;;;;5877351;28;20049;-83
2023/08/13 10:22:09;;;;;;;20.55;1.95;;;;;;;;;;5890865;28;20080;-84
2023/08/13 10:25:00;;;;;;;5.03;0.85;;;;;;;;;;5875444;28;20049;-83
2023/08/13 10:27:58;;;;;;;2.05;1.10;;;;;;;;;;5893417;28;20071;-84
2023/08/13 10:31:27;;;;;;;6.40;1.95;;;;;;;;;;5912471;28;20079;-82
2023/08/13 10:34:18;;;;;;;3.47;1.77;;;;;;;;;;5890811;28;20559;-82
2023/08/13 10:37:20;;;;;;;2.05;0.60;;;;;;;;;;5890607;28;20492;-82
2023/08/13 10:40:12;;;;;;;3.75;1.00;;;;;;;;;;5896017;28;20044;-82
2023/08/13 10:43:20;;;;;;;1.98;0.82;;;;;;;;;;5912401;28;20155;-82
2023/08/13 10:46:10;;;;;;;3.38;1.00;;;;;;;;;;5913484;28;20048;-82
2023/08/13 10:49:08;;;;;;;5.60;1.45;;;;;;;;;;5907540;28;20055;-82
2023/08/13 10:52:02;;;;;;;1.63;0.75;;;;;;;;;;5895277;28;20041;-82
2023/08/13 10:55:00;;;;;;;3.28;1.00;;;;;;;;;;5910592;28;20116;-81
2023/08/13 10:57:53;;;;;;;4.80;1.85;;;;;;;;;;5900036;28;20127;-82
2023/08/13 11:00:51;;;;;;;28.50;1.48;;;;;;;;;;5888792;28;20051;-82
2023/08/13 11:03:45;;;;;;;5.85;1.50;;;;;;;;;;5892669;28;20140;-83
2023/08/13 11:06:42;;;;;;;0.90;0.50;;;;;;;;;;5889131;28;20488;-82
2023/08/13 11:09:33;;;;;;;5.07;1.67;;;;;;;;;;5880331;28;20067;-82
2023/08/13 11:12:31;;;;;;;0.70;0.70;;;;;;;;;;5904147;28;20052;-81
2023/08/13 11:15:21;;;;;;;0.60;0.40;;;;;;;;;;5911252;28;20040;-84
2023/08/13 11:18:20;;;;;;;2.30;0.95;;;;;;;;;;5893642;28;20448;-82
2023/08/13 11:21:11;;;;;;;1.17;0.65;;;;;;;;;;5867984;28;20048;-83
2023/08/13 11:24:12;;;;;;;4.70;1.55;;;;;;;;;;5863193;28;20056;-82
2023/08/13 11:27:03;;;;;;;2.05;1.10;;;;;;;;;;5852221;28;20474;-83
2023/08/13 11:30:01;;;;;;;;;;;;;;;;;;5905648;28;20045;-84
2023/08/13 11:32:58;;;;;;;4.95;1.23;;;;;;;;;;5907452;28;19920;-83
2023/08/13 11:35:51;;;;;;;2.28;1.02;;;;;;;;;;5910018;28;20040;-89
2023/08/13 11:38:47;;;;;;;0.40;0.40;;;;;;;;;;5872880;28;20045;-82
2023/08/13 11:41:39;;;;;;;0.80;0.50;;;;;;;;;;5889995;28;20216;-83
2023/08/13 11:44:37;;;;;;;1.52;0.90;;;;;;;;;;5900006;28;20040;-83
2023/08/13 11:47:28;;;;;;;5.78;0.73;;;;;;;;;;5893011;28;20040;-83
2023/08/13 11:50:26;;;;;;;2.22;0.98;;;;;;;;;;5905408;28;20040;-84
2023/08/13 11:53:17;;;;;;;2.63;1.20;;;;;;;;;;5907512;28;20043;-82
2023/08/13 11:56:16;;;;;;;1.60;0.82;;;;;;;;;;5903217;28;20060;-89
2023/08/13 11:59:07;;;;;;;2.17;0.70;;;;;;;;;;5909354;28;20044;-82
2023/08/13 12:02:05;;;;;;;0.90;0.90;;;;;;;;;;5908201;28;20052;-89
2023/08/13 12:04:56;;;;;;;1.05;0.68;;;;;;;;;;5903516;28;20068;-84
2023/08/13 12:07:55;;;;;;;0.60;0.47;;;;;;;;;;5909808;28;20044;-85
2023/08/13 12:10:45;;;;;;;2.80;1.42;;;;;;;;;;5894126;28;20136;-84
2023/08/13 12:13:45;;;;;;;1.17;0.82;;;;;;;;;;5908691;28;20045;-83
2023/08/13 12:16:36;;;;;;;1.63;0.55;;;;;;;;;;5887058;28;20090;-82
2023/08/13 12:19:33;;;;;;;1.17;0.80;;;;;;;;;;5908884;28;20040;-82
2023/08/13 12:22:30;;;;;;;;;;;;;;;;;;5908935;28;20076;-83
2023/08/13 12:25:22;;;;;;;1.92;0.47;;;;;;;;;;5907386;28;19920;-84
2023/08/13 12:28:19;;;;;;;0.95;0.52;;;;;;;;;;5903461;28;20076;-86
2023/08/13 12:31:10;;;;;;;1.55;0.57;;;;;;;;;;5910078;28;20036;-84
2023/08/13 12:34:07;;;;;;;1.30;0.95;;;;;;;;;;5908912;28;20044;-82
2023/08/13 12:36:58;;;;;;;1.92;0.90;;;;;;;;;;5910124;28;20048;-83
2023/08/13 12:39:55;;;;;;;1.85;0.60;;;;;;;;;;5904945;28;20540;-86
2023/08/13 12:42:46;;;;;;;0.50;0.40;;;;;;;;;;5897360;28;20041;-82
2023/08/13 12:45:43;;;;;;;0.80;0.50;;;;;;;;;;5892696;28;20116;-85
2023/08/13 12:48:36;;;;;;;1.15;0.80;;;;;;;;;;5886888;28;20041;-84
2023/08/13 12:51:33;;;;;;;0.98;0.88;;;;;;;;;;5884474;28;20131;-82
2023/08/13 12:54:24;;;;;;;0.55;0.35;;;;;;;;;;5875244;28;20104;-83
2023/08/13 12:57:21;;;;;;;6.88;0.80;;;;;;;;;;5910648;28;20436;-85
2023/08/13 13:00:12;;;;;;;1.48;0.65;;;;;;;;;;5893998;28;20047;-86
2023/08/13 13:03:09;;;;;;;3.58;1.33;;;;;;;;;;5907714;28;20378;-81
2023/08/13 13:06:06;;;;;;;;;;;;;;;;;;5907007;28;20036;-85
2023/08/13 13:08:57;;;;;;;0.80;0.70;;;;;;;;;;5913536;28;19920;-81
2023/08/13 13:11:54;;;;;;;2.67;1.08;;;;;;;;;;5909591;28;20041;-84
2023/08/13 13:14:45;;;;;;;2.28;1.00;;;;;;;;;;5891776;28;20151;-85
2023/08/13 13:17:42;;;;;;;1.05;0.80;;;;;;;;;;5906111;28;20128;-85
2023/08/13 13:20:33;;;;;;;0.82;0.63;;;;;;;;;;5908618;28;20067;-85
2023/08/13 13:23:30;;;;;;;1.30;0.65;;;;;;;;;;5911724;28;20063;-84
2023/08/13 13:26:21;;;;;;;3.47;0.88;;;;;;;;;;5912024;28;20090;-83
2023/08/13 13:29:18;;;;;;;0.70;0.40;;;;;;;;;;5912343;28;20055;-83
2023/08/13 13:32:09;;;;;;;3.47;0.77;;;;;;;;;;5894536;28;20120;-82
2023/08/13 13:35:07;;;;;;;14.20;2.08;;;;;;;;;;5892837;28;20415;-84
2023/08/13 13:37:58;;;;;;;1.13;0.77;;;;;;;;;;5911483;28;20063;-81
2023/08/13 13:40:55;;;;;;;1.30;0.70;;;;;;;;;;5903297;28;20047;-82
2023/08/13 13:43:46;;;;;;;1.77;0.63;;;;;;;;;;5891213;28;20054;-72
2023/08/13 13:46:43;;;;;;;2.45;1.40;;;;;;;;;;5892317;28;20423;-73
2023/08/13 13:49:34;;;;;;;0.95;0.77;;;;;;;;;;5874902;28;20051;-73
2023/08/13 13:52:32;;;;;;;2.33;0.80;;;;;;;;;;5861286;28;20047;-72
2023/08/13 13:55:23;;;;;;;1.42;0.93;;;;;;;;;;5861555;28;20512;-73
2023/08/13 13:58:20;;;;;;;2.53;1.33;;;;;;;;;;5862170;28;20130;-73
2023/08/13 14:01:17;;;;;;;1.08;0.80;;;;;;;;;;5874779;28;20511;-73
2023/08/13 14:04:08;;;;;;;2.00;1.45;;;;;;;;;;5888709;28;20041;-73
2023/08/13 14:07:05;;;;;;;2.10;1.00;;;;;;;;;;5888869;28;20064;-73
2023/08/13 14:09:57;;;;;;;2.38;0.77;;;;;;;;;;5906314;28;20169;-72
2023/08/13 14:12:54;;;;;;;1.10;0.82;;;;;;;;;;5888741;28;20045;-72
2023/08/13 14:15:45;;;;;;;1.85;0.80;;;;;;;;;;5890012;28;20484;-72
2023/08/13 14:18:42;;;;;;;2.15;1.20;;;;;;;;;;5889743;28;20048;-72
2023/08/13 14:21:33;;;;;;;1.05;0.93;;;;;;;;;;5872599;28;20396;-72
2023/08/13 14:24:31;;;;;;;3.03;1.13;;;;;;;;;;5868068;28;20049;-71
2023/08/13 14:27:22;;;;;;;0.95;0.50;;;;;;;;;;5879063;28;20052;-72
2023/08/13 14:30:20;;;;;;;1.55;0.93;;;;;;;;;;5859345;28;20751;-73
2023/08/13 14:33:16;;;;;;;2.45;1.17;;;;;;;;;;5885346;28;20531;-72
2023/08/13 14:36:07;;;;;;;0.90;0.70;;;;;;;;;;5888247;28;20048;-72
2023/08/13 14:39:11;;;;;;;0.65;0.60;;;;;;;;;;5887383;28;20052;-72
2023/08/13 14:42:03;;;;;;;;;;;;;;;;;;5888509;28;20040;-72
2023/08/13 14:45:00;;;;;;;0.85;0.40;;;;;;;;;;5873219;28;19921;-72
2023/08/13 14:47:51;;;;;;;0.85;0.77;;;;;;;;;;5889153;28;20519;-73
2023/08/13 14:50:49;;;;;;;0.95;0.70;;;;;;;;;;5887742;28;20060;-73
2023/08/13 14:53:39;;;;;;;1.05;0.80;;;;;;;;;;5870479;28;20041;-72
2023/08/13 14:56:36;;;;;;;4.60;0.93;;;;;;;;;;5871415;28;20061;-72
2023/08/13 14:59:27;;;;;;;19.55;1.02;;;;;;;;;;5910497;28;20410;-73
2023/08/13 15:02:24;;;;;;;1.63;0.55;;;;;;;;;;5870736;28;20047;-72
2023/08/13 15:05:15;;;;;;;0.80;0.40;;;;;;;;;;5888614;28;20041;-72
2023/08/13 15:08:12;;;;;;;7.45;1.45;;;;;;;;;;5898033;28;20487;-72
2023/08/13 15:11:03;;;;;;;7.15;0.90;;;;;;;;;;5897074;28;20084;-72
2023/08/13 15:14:01;;;;;;;1.92;1.38;;;;;;;;;;5849993;28;20069;-72
2023/08/13 15:16:52;;;;;;;0.65;0.40;;;;;;;;;;5893125;28;20124;-72
2023/08/13 15:19:49;;;;;;;;;;;;;;;;;;5907842;28;20063;-73
2023/08/13 15:22:40;;;;;;;0.73;0.55;;;;;;;;;;5888881;28;19924;-72
2023/08/13 15:25:37;;;;;;;0.75;0.70;;;;;;;;;;5888271;28;20491;-72
2023/08/13 15:28:45;;;;;;;1.02;0.70;;;;;;;;;;5887394;28;20234;-73
2023/08/13 15:31:43;;;;;;;0.77;0.63;;;;;;;;;;5889769;28;20049;-73
2023/08/13 15:34:34;;;;;;;0.90;0.70;;;;;;;;;;5902129;28;20111;-72
2023/08/13 15:37:31;;;;;;;1.90;1.05;;;;;;;;;;5884017;28;20076;-72
2023/08/13 15:40:22;;;;;;;0.77;0.63;;;;;;;;;;5885314;28;20052;-74
2023/08/13 15:43:21;;;;;;;1.00;0.50;;;;;;;;;;5885522;28;20041;-72
2023/08/13 15:46:19;;;;;;;1.13;0.63;;;;;;;;;;5865422;28;20043;-73
2023/08/13 15:49:16;;;;;;;2.75;1.20;;;;;;;;;;5884344;28;20496;-72
2023/08/13 15:52:07;;;;;;;0.70;0.70;;;;;;;;;;5886723;28;20045;-73
2023/08/13 15:55:05;;;;;;;1.17;1.08;;;;;;;;;;5886494;28;20059;-73
2023/08/13 15:58:10;;;;;;;1.42;0.70;;;;;;;;;;5870468;28;20045;-73
2023/08/13 16:01:14;;;;;;;25.83;1.48;;;;;;;;;;5886201;28;20484;-73
2023/08/13 16:04:05;;;;;;;5.75;1.10;;;;;;;;;;5895619;28;20040;-73
2023/08/13 16:07:02;;;;;;;2.35;0.88;;;;;;;;;;5911474;28;20059;-72
2023/08/13 16:09:53;;;;;;;1.48;0.70;;;;;;;;;;5890224;28;20040;-73
2023/08/13 16:12:50;;;;;;;1.73;0.98;;;;;;;;;;5887893;28;20045;-73
2023/08/13 16:15:41;;;;;;;0.65;0.43;;;;;;;;;;5887831;28;20474;-73
2023/08/13 16:18:38;;;;;;;1.15;0.80;;;;;;;;;;5883861;28;20140;-74
2023/08/13 16:21:35;;;;;;;1.23;1.10;;;;;;;;;;5888079;28;20522;-73
2023/08/13 16:24:26;;;;;;;2.15;1.13;;;;;;;;;;5890728;28;20047;-73
2023/08/13 16:27:23;;;;;;;1.52;0.82;;;;;;;;;;5910716;28;20190;-73
2023/08/13 16:30:14;;;;;;;3.78;0.70;;;;;;;;;;5864380;28;20434;-73
2023/08/13 16:33:11;;;;;;;3.20;1.17;;;;;;;;;;5870403;28;20051;-73
2023/08/13 16:36:03;;;;;;;0.98;0.85;;;;;;;;;;5887716;28;20128;-73
2023/08/13 16:38:59;;;;;;;3.20;1.25;;;;;;;;;;5880759;28;20033;-73
2023/08/13 16:41:50;;;;;;;0.57;0.57;;;;;;;;;;5869779;28;20045;-73
2023/08/13 16:44:47;;;;;;;0.60;0.60;;;;;;;;;;5887365;28;20053;-73
2023/08/13 16:47:38;;;;;;;0.90;0.90;;;;;;;;;;5908637;28;20043;-73
2023/08/13 16:50:35;;;;;;;3.20;1.55;;;;;;;;;;5886802;28;20063;-73
2023/08/13 16:53:29;;;;;;;2.85;1.08;;;;;;;;;;5886983;28;20049;-73
2023/08/13 16:56:26;;;;;;;3.80;1.35;;;;;;;;;;5886698;28;20051;-73
2023/08/13 16:59:17;;;;;;;3.55;1.20;;;;;;;;;;5876219;28;20049;-73
2023/08/13 17:02:14;;;;;;;1.33;1.05;;;;;;;;;;5886972;28;20055;-75
2023/08/13 17:05:06;;;;;;;2.80;0.98;;;;;;;;;;5899857;28;20127;-74
2023/08/13 17:08:04;;;;;;;1.33;0.93;;;;;;;;;;5904580;28;20124;-74
2023/08/13 17:10:55;;;;;;;1.10;0.80;;;;;;;;;;5887386;28;20544;-73
2023/08/13 17:13:52;;;;;;;2.53;1.00;;;;;;;;;;5887128;28;20051;-73
2023/08/13 17:16:43;;;;;;;3.22;1.00;;;;;;;;;;5886469;28;20040;-73
2023/08/13 17:19:40;;;;;;;1.77;0.73;;;;;;;;;;5891027;28;20048;-73
2023/08/13 17:22:31;;;;;;;1.50;1.33;;;;;;;;;;5886420;28;20049;-74
2023/08/13 17:25:28;;;;;;;6.28;1.55;;;;;;;;;;5872764;28;20372;-73
2023/08/13 17:28:19;;;;;;;3.75;2.28;;;;;;;;;;5901966;28;20063;-73
2023/08/13 17:31:16;;;;;;;6.73;1.40;;;;;;;;;;5869562;28;20045;-73